Time;durP1;ratioP1;P1;durP2;ratioP2;P2;SDS_P1;SDS_P2;PMS_P1;PMS_P2;Temp;Humidity;BMP_temperature;BMP_pressure;BME280_temperature;BME280_humidity;BME280_pressure;Samples;Min_cycle;Max_cycle;Signal;HPM_P1;HPM_P2
2022/05/26 00:01:53;;;;;;;12.95;6.35;;;;;;;31.31;66.82;100654.81;5076617;28;70232;-39
2022/05/26 00:04:24;;;;;;;8.15;5.55;;;;;;;31.36;67.07;100662.31;5069426;28;65620;-38
2022/05/26 00:06:59;;;;;;;16.15;6.28;;;;;;;31.44;65.93;100664.72;5075716;28;70579;-38
2022/05/26 00:09:29;;;;;;;6.22;5.60;;;;;;;31.52;65.80;100661.69;5072598;28;65244;-39
2022/05/26 00:12:00;;;;;;;11.23;6.38;;;;;;;31.54;67.96;100669.59;5064421;28;69388;-40
2022/05/26 00:14:31;;;;;;;11.75;7.22;;;;;;;31.53;68.60;100671.47;5070491;28;67264;-39
2022/05/26 00:17:02;;;;;;;10.20;6.53;;;;;;;31.64;69.96;100688.00;5065411;28;70336;-38
2022/05/26 00:19:34;;;;;;;10.18;7.03;;;;;;;31.58;70.46;100681.63;5073199;28;65606;-38
2022/05/26 00:22:04;;;;;;;10.65;7.65;;;;;;;31.67;70.82;100695.69;5071981;28;69179;-38
2022/05/26 00:24:35;;;;;;;10.57;7.30;;;;;;;31.73;69.14;100689.31;5074301;27;65698;-38
2022/05/26 00:27:06;;;;;;;9.20;7.88;;;;;;;31.72;70.39;100693.09;5062534;28;71604;-39
2022/05/26 00:29:38;;;;;;;15.65;8.00;;;;;;;31.67;70.67;100679.41;5051491;28;66799;-40
2022/05/26 00:32:09;;;;;;;8.27;7.43;;;;;;;31.79;70.55;100693.84;5066142;28;70156;-38
2022/05/26 00:34:40;;;;;;;16.30;7.90;;;;;;;31.78;71.44;100697.59;5068592;28;65582;-37
2022/05/26 00:37:11;;;;;;;13.50;7.70;;;;;;;31.75;71.13;100698.06;5069643;28;69431;-38
2022/05/26 00:39:42;;;;;;;9.77;8.00;;;;;;;31.80;71.41;100703.63;5070953;28;65570;-38
2022/05/26 00:42:14;;;;;;;10.23;7.57;;;;;;;31.80;70.97;100711.78;5065374;28;69401;-39
2022/05/26 00:44:44;;;;;;;20.33;8.35;;;;;;;31.81;71.80;100710.69;5054200;28;65943;-39
2022/05/26 00:47:24;;;;;;;11.85;7.30;;;;;;;31.85;71.80;100711.09;5061060;28;69673;-39
2022/05/26 00:50:23;;;;;;;12.73;8.23;;;;;;;31.74;72.32;100715.41;5071731;28;66924;-39
2022/05/26 00:53:00;;;;;;;11.95;8.23;;;;;;;31.72;72.39;100703.97;5057468;28;70522;-39
2022/05/26 00:55:43;;;;;;;14.43;8.25;;;;;;;31.78;72.10;100705.75;5073426;28;66107;-39
2022/05/26 00:58:22;;;;;;;9.35;8.30;;;;;;;31.68;72.53;100686.47;5072004;28;70517;-40
2022/05/26 01:00:53;;;;;;;15.90;8.65;;;;;;;31.88;72.45;100733.16;5062474;28;65762;-39
2022/05/26 01:03:30;;;;;;;11.30;8.00;;;;;;;31.92;72.73;100747.91;5077618;28;70168;-39
2022/05/26 01:06:17;;;;;;;11.85;7.78;;;;;;;31.55;72.67;100693.75;5048156;28;65387;-40
2022/05/26 01:08:56;;;;;;;12.35;8.10;;;;;;;31.96;72.28;100756.44;5057683;28;68501;-39
2022/05/26 01:11:30;;;;;;;11.57;8.00;;;;;;;31.94;72.14;100743.09;5077104;28;65584;-39
2022/05/26 01:14:07;;;;;;;10.35;7.72;;;;;;;31.70;72.26;100701.47;5068709;28;69987;-39
2022/05/26 01:17:15;;;;;;;11.48;8.23;;;;;;;31.94;72.26;100745.81;5052981;28;66601;-39
2022/05/26 01:20:06;;;;;;;13.45;8.40;;;;;;;32.04;72.04;100762.38;5070467;28;70504;-38
2022/05/26 01:22:46;;;;;;;11.63;8.18;;;;;;;32.02;71.73;100767.19;5065843;28;66114;-38
2022/05/26 01:25:36;;;;;;;13.07;8.45;;;;;;;31.99;71.67;100767.66;5053841;28;69964;-38
2022/05/26 01:28:07;;;;;;;14.13;7.90;;;;;;;32.09;71.29;100769.78;5075239;28;66180;-39
2022/05/26 01:30:59;;;;;;;10.95;8.05;;;;;;;32.07;71.08;100757.50;5071517;28;69412;-39
2022/05/26 01:33:31;;;;;;;16.00;8.50;;;;;;;32.12;70.39;100774.75;5070723;28;66541;-39
2022/05/26 01:36:26;;;;;;;12.93;7.70;;;;;;;32.12;70.41;100769.34;5068115;28;69658;-40
2022/05/26 01:39:14;;;;;;;13.93;8.25;;;;;;;32.10;70.23;100776.06;5073491;28;66572;-39
2022/05/26 01:42:18;;;;;;;14.38;7.57;;;;;;;31.88;69.84;100762.16;5073132;28;69672;-39
2022/05/26 01:45:04;;;;;;;14.43;7.63;;;;;;;32.12;70.01;100773.94;5065791;28;66207;-39
2022/05/26 01:47:56;;;;;;;13.13;7.22;;;;;;;32.11;69.79;100783.97;5070222;28;69346;-39
2022/05/26 01:50:57;;;;;;;18.75;7.22;;;;;;;32.04;69.86;100773.22;5071037;28;66182;-39
2022/05/26 01:53:37;;;;;;;16.02;6.88;;;;;;;32.19;69.92;100774.69;5072863;28;70207;-39
2022/05/26 01:56:28;;;;;;;18.38;6.97;;;;;;;32.20;69.71;100770.88;5044401;28;65901;-39
2022/05/26 01:59:09;;;;;;;12.32;7.97;;;;;;;31.87;69.63;100720.63;5063633;28;69906;-38
2022/05/26 02:01:45;;;;;;;13.80;7.27;;;;;;;32.21;69.12;100773.38;5061888;28;65656;-39
2022/05/26 02:04:28;;;;;;;11.60;6.60;;;;;;;32.19;69.86;100780.09;5054130;28;69866;-41
2022/05/26 02:07:07;;;;;;;8.77;6.55;;;;;;;32.16;69.45;100769.72;5071673;28;65584;-40
2022/05/26 02:09:42;;;;;;;13.65;6.70;;;;;;;31.88;69.61;100726.91;5073705;28;69411;-38
2022/05/26 02:12:25;;;;;;;13.30;7.25;;;;;;;32.28;70.07;100784.94;5060157;28;64991;-42
2022/05/26 02:15:07;;;;;;;13.05;6.15;;;;;;;32.19;69.92;100771.97;5073291;28;70545;-41
2022/05/26 02:17:47;;;;;;;11.25;6.45;;;;;;;32.18;69.64;100751.28;5059807;28;66473;-41
2022/05/26 02:20:29;;;;;;;15.15;6.20;;;;;;;32.34;69.53;100775.06;5053144;28;70388;-42
2022/05/26 02:23:04;;;;;;;;;;;;;;;32.03;69.76;100776.16;5071628;28;66052;-39
2022/05/26 02:25:35;;;;;;;12.55;6.60;;;;;;;32.32;69.69;100765.47;5051040;28;70583;-40
2022/05/26 02:28:06;;;;;;;15.77;6.53;;;;;;;32.27;68.85;100755.34;5073004;28;65953;-41
2022/05/26 02:30:40;;;;;;;11.27;6.55;;;;;;;32.37;68.59;100771.88;5064487;28;68909;-41
2022/05/26 02:33:15;;;;;;;14.60;7.43;;;;;;;31.98;68.50;100706.31;5071730;28;66849;-41
2022/05/26 02:35:52;;;;;;;13.07;6.00;;;;;;;31.95;68.34;100698.63;5074854;28;70079;-43
2022/05/26 02:38:26;;;;;;;15.45;6.65;;;;;;;32.29;68.50;100750.53;5067601;28;65284;-43
2022/05/26 02:40:57;;;;;;;13.10;6.00;;;;;;;32.37;68.41;100766.44;5075240;28;70603;-42
2022/05/26 02:43:31;;;;;;;16.00;6.32;;;;;;;32.37;68.53;100766.44;5070397;28;66937;-41
2022/05/26 02:46:26;;;;;;;13.10;6.65;;;;;;;32.31;68.44;100767.38;5042200;28;70288;-41
2022/05/26 02:49:02;;;;;;;14.25;6.80;;;;;;;32.37;67.99;100766.44;5063587;28;65646;-42
2022/05/26 02:51:49;;;;;;;14.60;7.22;;;;;;;32.39;67.58;100769.75;5058496;28;70198;-41
2022/05/26 02:55:10;;;;;;;9.85;6.15;;;;;;;32.34;68.47;100760.66;5071934;28;65263;-42
2022/05/26 02:58:05;;;;;;;16.23;6.68;;;;;;;32.29;68.69;100764.09;4993640;28;70108;-41
2022/05/26 03:01:00;;;;;;;8.88;5.65;;;;;;;32.34;68.84;100747.91;4992723;28;66393;-41
2022/05/26 03:03:52;;;;;;;12.68;5.65;;;;;;;32.48;68.70;100764.84;5060825;28;70745;-42
2022/05/26 03:06:36;;;;;;;9.65;5.82;;;;;;;32.51;68.75;100756.22;5057537;28;66188;-41
2022/05/26 03:09:11;;;;;;;12.15;6.07;;;;;;;32.59;68.17;100736.03;5072546;28;70029;-41
2022/05/26 03:11:53;;;;;;;11.93;5.65;;;;;;;32.61;68.18;100739.38;5073250;28;66072;-41
2022/05/26 03:14:26;;;;;;;6.20;5.50;;;;;;;32.63;68.15;100731.81;5067502;28;69784;-41
2022/05/26 03:16:57;;;;;;;11.15;5.50;;;;;;;32.68;67.77;100723.75;5054167;28;65982;-41
2022/05/26 03:19:28;;;;;;;9.25;5.50;;;;;;;32.69;67.66;100720.00;5068654;28;70404;-41
2022/05/26 03:21:59;;;;;;;6.93;5.40;;;;;;;32.72;67.78;100722.25;5055288;28;65950;-41
2022/05/26 03:24:30;;;;;;;12.77;5.93;;;;;;;32.75;67.51;100710.91;5071293;28;68979;-41
2022/05/26 03:27:01;;;;;;;8.88;5.78;;;;;;;32.77;67.63;100711.50;5068435;28;65354;-41
2022/05/26 03:29:32;;;;;;;10.73;4.85;;;;;;;32.72;67.50;100697.78;5054398;28;69344;-41
2022/05/26 03:32:05;;;;;;;8.52;5.57;;;;;;;32.81;67.58;100715.38;5069334;28;65884;-40
2022/05/26 03:43:05;;;;;;;8.93;6.05;;;;;;;32.87;68.39;100706.28;5071889;28;66427;-42
2022/05/26 03:45:37;;;;;;;13.35;4.88;;;;;;;32.87;68.63;100700.84;5071742;28;69359;-39
2022/05/26 03:48:09;;;;;;;;;;;;;;;32.62;69.84;100698.38;5071214;28;66796;-39
2022/05/26 03:50:40;;;;;;;8.37;5.00;;;;;;;32.84;68.94;100687.72;5060801;28;69339;-39
2022/05/26 03:53:11;;;;;;;10.67;4.70;;;;;;;32.87;69.12;100684.53;5060262;28;67172;-40
2022/05/26 03:55:42;;;;;;;7.65;4.78;;;;;;;32.91;68.83;100685.72;5067268;28;68927;-38
2022/05/26 03:58:13;;;;;;;7.28;5.47;;;;;;;32.83;68.52;100664.34;5067054;28;64722;-38
2022/05/26 04:00:44;;;;;;;10.40;4.63;;;;;;;32.81;69.08;100663.75;5057079;28;70398;-40
2022/05/26 04:03:15;;;;;;;8.60;4.93;;;;;;;32.92;69.15;100664.81;5060459;28;66936;-39
2022/05/26 04:05:46;;;;;;;9.60;4.82;;;;;;;32.97;68.96;100666.81;5065648;28;69209;-39
2022/05/26 04:08:17;;;;;;;7.55;4.05;;;;;;;32.93;69.05;100663.72;5071771;28;66472;-39
2022/05/26 04:10:48;;;;;;;11.23;5.13;;;;;;;32.99;69.05;100670.09;5067128;28;70867;-38
2022/05/26 04:13:20;;;;;;;7.07;5.20;;;;;;;33.05;68.50;100664.59;5071723;28;65326;-38
2022/05/26 04:15:55;;;;;;;9.43;5.20;;;;;;;33.09;67.93;100654.88;5072259;28;69513;-38
2022/05/26 04:18:26;;;;;;;10.73;5.18;;;;;;;33.12;68.26;100648.13;5052304;28;67084;-39
2022/05/26 04:21:08;;;;;;;11.10;4.72;;;;;;;33.13;68.06;100656.06;5075162;28;70113;-38
2022/05/26 04:23:40;;;;;;;12.00;5.10;;;;;;;33.17;67.94;100642.78;5058730;28;66594;-38
2022/05/26 04:26:11;;;;;;;9.50;4.45;;;;;;;33.18;68.22;100632.75;5075227;28;69400;-38
2022/05/26 04:28:42;;;;;;;;;;;;;;;32.96;68.51;100637.97;5074344;28;66519;-38
2022/05/26 04:31:13;;;;;;;8.30;4.30;;;;;;;33.23;67.42;100627.41;5071449;28;70488;-39
2022/05/26 04:33:44;;;;;;;8.67;5.33;;;;;;;33.20;67.76;100628.72;5071857;28;67338;-39
2022/05/26 04:36:15;;;;;;;8.65;5.15;;;;;;;32.95;67.83;100588.25;5068339;28;69459;-39
2022/05/26 04:38:46;;;;;;;7.75;4.60;;;;;;;33.24;67.51;100624.47;5073677;28;66980;-39
2022/05/26 04:41:20;;;;;;;6.85;4.25;;;;;;;33.28;67.65;100625.63;5070199;28;70257;-39
2022/05/26 04:43:51;;;;;;;9.27;4.85;;;;;;;33.17;67.42;100604.75;5069232;28;66307;-40
2022/05/26 04:46:22;;;;;;;9.10;4.35;;;;;;;33.29;67.35;100618.28;5072275;28;69129;-40
2022/05/26 04:48:53;;;;;;;7.30;4.13;;;;;;;33.29;67.66;100605.53;5070558;28;65831;-38
2022/05/26 04:51:24;;;;;;;5.47;3.60;;;;;;;33.26;67.19;100603.28;5066171;28;69873;-38
2022/05/26 04:53:55;;;;;;;6.28;3.60;;;;;;;33.20;65.25;100600.72;5067435;28;66863;-40
2022/05/26 04:56:26;;;;;;;4.80;3.80;;;;;;;33.06;63.25;100594.75;5073946;28;69399;-37
2022/05/26 04:58:57;;;;;;;9.77;3.50;;;;;;;32.93;62.09;100591.22;5065877;28;65915;-38
2022/05/26 05:01:27;;;;;;;11.23;3.80;;;;;;;32.87;61.09;100592.16;5065599;28;69676;-39
2022/05/26 05:04:00;;;;;;;6.10;3.20;;;;;;;32.78;59.72;100588.19;5073907;28;66462;-39
2022/05/26 05:06:31;;;;;;;6.22;3.40;;;;;;;32.75;58.97;100582.41;5064243;28;68127;-38
2022/05/26 05:09:03;;;;;;;5.80;3.60;;;;;;;32.65;58.52;100572.16;5065550;28;66263;-37
2022/05/26 05:11:35;;;;;;;10.80;3.65;;;;;;;32.59;57.33;100579.38;5070611;28;69631;-38
2022/05/26 05:14:05;;;;;;;5.18;3.33;;;;;;;32.55;56.47;100570.06;5069290;28;67000;-42
2022/05/26 05:16:42;;;;;;;4.03;2.67;;;;;;;32.32;55.58;100534.75;5067322;28;70223;-40
2022/05/26 05:19:18;;;;;;;8.80;3.45;;;;;;;32.45;54.80;100554.34;5070939;28;66182;-39
2022/05/26 05:22:09;;;;;;;7.32;3.03;;;;;;;32.23;53.95;100537.03;5057751;28;68584;-48
2022/05/26 05:24:43;;;;;;;3.45;2.55;;;;;;;32.37;53.41;100549.28;5060567;28;65629;-38
2022/05/26 05:27:40;;;;;;;3.55;2.55;;;;;;;31.97;52.56;100479.47;5067548;28;69713;-38
2022/05/26 05:30:22;;;;;;;4.10;2.83;;;;;;;32.18;52.04;100517.91;5070361;28;66690;-38
2022/05/26 05:32:57;;;;;;;5.97;2.58;;;;;;;32.29;51.93;100525.25;5071290;28;70064;-39
2022/05/26 05:36:08;;;;;;;2.22;2.03;;;;;;;32.15;51.27;100521.94;5064632;28;65587;-39
2022/05/26 05:38:40;;;;;;;2.80;2.55;;;;;;;32.20;50.62;100522.03;5053048;28;69557;-38
2022/05/26 05:41:12;;;;;;;3.75;2.15;;;;;;;32.19;50.36;100514.16;5042511;28;66565;-38
2022/05/26 05:43:44;;;;;;;3.05;2.63;;;;;;;32.20;49.72;100505.75;5056906;28;69962;-39
2022/05/26 05:46:15;;;;;;;2.50;2.30;;;;;;;32.16;49.55;100496.44;5074269;28;66660;-39
2022/05/26 05:48:47;;;;;;;2.90;2.10;;;;;;;32.12;49.30;100489.84;5071777;28;69251;-42
2022/05/26 05:51:18;;;;;;;4.43;2.40;;;;;;;32.07;48.95;100478.03;5057677;28;65429;-37
2022/05/26 05:53:49;;;;;;;2.20;2.00;;;;;;;32.16;48.91;100490.22;5069525;28;69771;-37
2022/05/26 05:56:20;;;;;;;3.00;1.83;;;;;;;32.13;48.26;100477.13;5051810;28;66046;-38
2022/05/26 05:58:52;;;;;;;3.40;2.20;;;;;;;32.03;48.29;100466.84;5058153;28;70300;-38
2022/05/26 06:01:23;;;;;;;2.85;1.80;;;;;;;32.15;47.92;100480.41;5065326;28;65745;-39
2022/05/26 06:03:54;;;;;;;1.67;1.47;;;;;;;32.13;47.39;100483.38;5068987;28;70210;-39
2022/05/26 06:06:25;;;;;;;2.40;1.80;;;;;;;32.13;47.61;100477.13;5068545;28;66485;-37
2022/05/26 06:08:56;;;;;;;3.03;1.77;;;;;;;32.12;47.35;100470.03;5067181;28;70369;-39
2022/05/26 06:11:27;;;;;;;3.15;1.83;;;;;;;32.09;46.93;100460.47;5052765;28;65115;-38
2022/05/26 06:13:58;;;;;;;4.13;2.07;;;;;;;32.13;46.71;100460.84;5035925;28;70466;-38
2022/05/26 06:16:30;;;;;;;1.73;1.63;;;;;;;32.12;46.40;100462.69;5072152;28;67540;-38
2022/05/26 06:19:02;;;;;;;3.90;2.03;;;;;;;32.15;46.40;100451.41;5070319;28;69779;-38
2022/05/26 06:21:36;;;;;;;2.03;1.70;;;;;;;32.07;46.03;100434.63;5070395;28;66353;-39
2022/05/26 06:24:09;;;;;;;4.30;1.55;;;;;;;32.16;45.66;100444.06;5068345;27;69098;-41
2022/05/26 06:26:40;;;;;;;2.08;1.88;;;;;;;32.17;45.66;100445.72;5063442;28;66056;-38
2022/05/26 06:37:39;;;;;;;2.15;1.55;;;;;;;32.09;45.22;100417.06;5078904;28;66393;-38
2022/05/26 06:40:10;;;;;;;5.38;1.80;;;;;;;32.19;44.67;100422.69;5074142;28;70097;-39
2022/05/26 06:42:44;;;;;;;3.35;1.65;;;;;;;32.04;44.63;100404.22;5072859;28;65212;-39
2022/05/26 06:45:20;;;;;;;2.97;1.50;;;;;;;31.91;44.63;100371.94;5072675;28;69590;-39
2022/05/26 06:47:52;;;;;;;1.98;1.33;;;;;;;32.18;44.35;100409.38;5074307;28;66174;-37
2022/05/26 06:50:23;;;;;;;4.20;1.58;;;;;;;32.12;44.63;100404.91;5071000;28;70444;-37
2022/05/26 06:52:54;;;;;;;2.95;1.50;;;;;;;32.18;44.37;100404.78;5059223;28;66551;-38
2022/05/26 06:55:25;;;;;;;2.85;1.20;;;;;;;32.11;44.27;100385.09;5074646;28;70235;-37
2022/05/26 06:57:56;;;;;;;1.93;1.30;;;;;;;32.20;44.29;100388.25;5051764;28;65613;-38
2022/05/26 07:00:27;;;;;;;2.13;1.35;;;;;;;32.22;44.38;100388.84;5066791;28;69970;-38
2022/05/26 07:02:58;;;;;;;2.17;1.25;;;;;;;32.20;43.75;100377.38;5072129;28;65038;-37
2022/05/26 07:05:29;;;;;;;3.03;1.15;;;;;;;32.22;43.99;100367.94;5075222;28;69896;-38
2022/05/26 07:08:00;;;;;;;3.15;1.42;;;;;;;32.20;43.71;100355.69;5077641;28;65342;-38
2022/05/26 07:10:33;;;;;;;2.13;1.10;;;;;;;32.19;43.48;100345.91;5066793;28;69713;-39
2022/05/26 07:13:04;;;;;;;3.08;1.10;;;;;;;32.16;43.45;100340.97;5071899;28;66258;-37
2022/05/26 07:15:35;;;;;;;1.70;1.00;;;;;;;32.20;42.90;100342.94;5074201;28;69310;-37
2022/05/26 07:18:07;;;;;;;6.30;1.55;;;;;;;32.15;43.14;100323.00;5064624;28;65637;-37
2022/05/26 07:20:39;;;;;;;5.00;1.20;;;;;;;32.16;43.11;100324.69;5071361;28;68958;-38
2022/05/26 07:23:10;;;;;;;1.80;1.25;;;;;;;32.02;42.98;100297.84;5065449;28;66444;-38
2022/05/26 07:25:43;;;;;;;1.92;1.40;;;;;;;32.23;42.88;100304.47;5062959;28;70117;-38
2022/05/26 07:28:14;;;;;;;1.73;1.05;;;;;;;32.18;42.67;100300.81;5070146;28;65377;-38
2022/05/26 07:30:45;;;;;;;2.80;1.40;;;;;;;32.18;42.74;100309.81;5070590;28;69117;-38
2022/05/26 07:33:16;;;;;;;3.45;1.75;;;;;;;32.22;42.24;100310.94;5071062;28;64929;-39
2022/05/26 07:35:47;;;;;;;1.80;1.00;;;;;;;32.18;42.39;100306.25;5061284;28;71060;-38
2022/05/26 07:41:17;;;;;;;2.28;1.40;;;;;;;32.21;42.07;100317.47;5059156;28;69848;-40
2022/05/26 07:43:55;;;;;;;1.45;1.13;;;;;;;32.18;41.85;100311.66;5070805;28;67187;-39
2022/05/26 07:46:27;;;;;;;5.65;1.25;;;;;;;32.18;42.08;100306.25;5070107;28;70198;-39
2022/05/26 07:48:57;;;;;;;1.88;1.30;;;;;;;32.10;41.96;100282.25;5058430;28;66140;-39
2022/05/26 07:51:28;;;;;;;2.25;1.35;;;;;;;32.15;42.04;100285.03;5073286;28;69519;-39
2022/05/26 07:54:02;;;;;;;2.38;1.50;;;;;;;32.10;42.36;100293.09;5073876;28;65750;-40
2022/05/26 07:56:38;;;;;;;2.88;1.65;;;;;;;31.71;42.34;100241.31;5066250;28;70420;-39
2022/05/26 07:59:10;;;;;;;2.38;1.85;;;;;;;32.12;43.26;100335.19;5060136;28;66442;-39
2022/05/26 08:01:40;;;;;;;4.25;2.05;;;;;;;32.18;44.85;100349.66;5051800;28;68965;-40
2022/05/26 08:04:11;;;;;;;7.23;2.47;;;;;;;32.29;46.27;100329.81;5077452;28;66691;-38
2022/05/26 08:06:47;;;;;;;2.58;1.67;;;;;;;32.37;46.99;100315.00;5072298;28;69121;-39
2022/05/26 08:09:30;;;;;;;2.55;1.75;;;;;;;32.44;47.86;100321.94;5073388;28;65361;-39
2022/05/26 08:12:17;;;;;;;3.75;2.42;;;;;;;32.52;48.31;100323.47;5071178;28;69587;-38
2022/05/26 08:14:49;;;;;;;4.40;1.98;;;;;;;32.59;49.20;100331.44;5069203;28;65848;-38
2022/05/26 08:17:22;;;;;;;;;;;;;;;32.41;50.42;100327.84;5059364;28;69175;-39
2022/05/26 08:19:54;;;;;;;5.55;1.90;;;;;;;32.67;50.42;100320.19;5057799;28;66829;-39
2022/05/26 08:22:25;;;;;;;3.55;1.70;;;;;;;32.71;51.01;100316.75;5068946;28;69865;-39
2022/05/26 08:24:58;;;;;;;3.63;1.90;;;;;;;32.36;52.66;100257.19;5072225;28;65958;-38
2022/05/26 08:27:28;;;;;;;3.60;2.15;;;;;;;32.72;57.30;100303.97;5047585;28;69236;-38
2022/05/26 08:29:59;;;;;;;3.13;2.47;;;;;;;32.80;59.37;100303.56;5072158;28;66508;-37
2022/05/26 08:32:33;;;;;;;6.50;3.33;;;;;;;32.77;60.74;100276.09;5071320;28;70085;-38
2022/05/26 08:35:09;;;;;;;3.90;2.67;;;;;;;32.90;61.62;100290.16;5069701;28;66310;-39
2022/05/26 08:37:39;;;;;;;6.97;3.03;;;;;;;33.01;62.46;100304.72;5072116;28;69897;-38
2022/05/26 08:40:37;;;;;;;6.03;2.80;;;;;;;32.56;62.61;100226.88;5075521;28;65489;-39
2022/05/26 08:43:18;;;;;;;6.97;3.17;;;;;;;33.01;63.48;100309.34;5070412;28;69984;-38
2022/05/26 08:45:52;;;;;;;3.60;3.22;;;;;;;33.02;64.08;100311.81;5061315;27;67441;-37
2022/05/26 08:48:40;;;;;;;3.58;2.95;;;;;;;33.06;64.40;100329.25;5065654;28;69307;-39
2022/05/26 08:51:19;;;;;;;4.53;3.28;;;;;;;33.11;64.96;100328.53;5069562;28;65766;-38
2022/05/26 08:53:51;;;;;;;3.65;3.25;;;;;;;33.00;65.39;100313.13;5069866;28;69685;-38
2022/05/26 08:56:25;;;;;;;5.78;3.17;;;;;;;32.85;65.76;100290.06;5069349;28;65244;-39
2022/05/26 08:59:03;;;;;;;3.88;2.97;;;;;;;32.98;65.80;100298.94;5070636;28;70107;-38
2022/05/26 09:01:34;;;;;;;7.93;3.00;;;;;;;33.08;65.49;100310.81;5057315;28;65090;-38
2022/05/26 09:04:05;;;;;;;5.15;3.20;;;;;;;33.15;65.49;100311.47;5075802;28;71211;-38
2022/05/26 09:15:26;;;;;;;4.93;3.53;;;;;;;33.13;65.84;100307.38;5065521;28;70078;-37
2022/05/26 09:17:57;;;;;;;4.43;3.30;;;;;;;33.15;65.95;100310.63;5069939;28;65386;-38
2022/05/26 09:20:39;;;;;;;5.00;3.72;;;;;;;33.13;66.62;100313.63;5073369;28;70007;-38
2022/05/26 09:23:22;;;;;;;6.68;3.50;;;;;;;33.00;66.73;100285.97;5059293;28;65229;-37
2022/05/26 09:26:05;;;;;;;4.18;3.63;;;;;;;32.73;66.91;100232.28;5070360;28;69544;-37
2022/05/26 09:28:51;;;;;;;5.88;4.03;;;;;;;32.76;66.91;100237.22;5072373;28;65925;-37
2022/05/26 09:31:33;;;;;;;9.02;4.20;;;;;;;32.84;67.00;100247.66;5065559;28;69602;-38
2022/05/26 09:34:18;;;;;;;5.38;4.20;;;;;;;33.18;67.11;100310.13;5048873;28;66750;-38
2022/05/26 09:36:53;;;;;;;5.50;4.22;;;;;;;33.19;67.30;100325.38;5061444;28;70088;-38
2022/05/26 09:39:37;;;;;;;4.40;3.80;;;;;;;32.85;67.25;100262.91;5052858;28;66358;-39
2022/05/26 09:42:17;;;;;;;4.28;3.72;;;;;;;33.19;67.03;100311.81;5065682;28;69577;-39
2022/05/26 09:44:55;;;;;;;8.10;4.72;;;;;;;32.87;68.01;100249.06;5071614;28;66412;-38
2022/05/26 09:47:37;;;;;;;14.70;6.60;;;;;;;33.15;68.55;100308.78;5046347;28;70350;-39
2022/05/26 09:50:28;;;;;;;14.48;5.57;;;;;;;33.15;68.70;100316.91;5068624;28;65959;-38
2022/05/26 09:53:00;;;;;;;12.52;6.00;;;;;;;33.11;68.81;100325.81;5069944;28;70260;-39
2022/05/26 09:55:47;;;;;;;12.63;6.03;;;;;;;33.06;70.18;100333.88;5069731;28;66022;-37
2022/05/26 09:58:39;;;;;;;10.25;6.13;;;;;;;33.09;70.70;100338.81;5051443;28;69829;-38
2022/05/26 10:01:27;;;;;;;11.27;6.15;;;;;;;33.07;70.23;100319.22;5072228;28;66297;-39
2022/05/26 10:04:25;;;;;;;9.00;6.38;;;;;;;33.03;70.38;100328.94;5070209;28;70560;-38
2022/05/26 10:06:56;;;;;;;8.68;6.65;;;;;;;33.10;69.92;100318.75;5073299;28;66346;-38
2022/05/26 10:09:33;;;;;;;7.68;6.38;;;;;;;32.67;70.47;100244.97;5073717;28;69704;-38
2022/05/26 10:12:25;;;;;;;8.43;6.43;;;;;;;33.11;70.82;100317.66;5060352;28;65582;-38
2022/05/26 10:15:17;;;;;;;9.10;6.57;;;;;;;33.11;71.39;100325.81;5055169;28;70036;-37
2022/05/26 10:18:13;;;;;;;6.82;6.13;;;;;;;33.12;71.83;100322.00;5071251;28;66222;-37
2022/05/26 10:21:12;;;;;;;9.63;6.78;;;;;;;33.05;72.04;100315.94;5068503;28;70639;-37
2022/05/26 10:24:06;;;;;;;18.25;7.63;;;;;;;33.07;71.81;100319.22;5063743;28;66920;-39
2022/05/26 10:27:07;;;;;;;16.80;7.57;;;;;;;33.08;71.36;100318.97;5065569;28;70190;-40
2022/05/26 10:29:52;;;;;;;12.15;7.30;;;;;;;33.13;71.19;100323.69;5074043;28;66364;-38
2022/05/26 10:32:47;;;;;;;11.80;7.20;;;;;;;32.73;71.42;100283.88;5075148;28;69842;-38
2022/05/26 10:35:32;;;;;;;10.48;7.15;;;;;;;33.09;71.22;100317.06;5068544;28;65939;-39
2022/05/26 10:38:26;;;;;;;10.15;7.57;;;;;;;33.08;71.44;100321.69;5040572;28;70210;-39
2022/05/26 10:41:32;;;;;;;12.23;7.32;;;;;;;33.01;71.60;100320.22;5071652;28;65653;-39
2022/05/26 10:44:18;;;;;;;11.73;7.67;;;;;;;33.07;71.53;100321.94;5071786;28;70117;-39
2022/05/26 10:47:07;;;;;;;12.07;7.45;;;;;;;32.64;71.90;100256.31;5071737;28;66342;-39
2022/05/26 10:49:42;;;;;;;11.27;8.25;;;;;;;33.08;71.66;100315.44;5075444;28;69923;-40
2022/05/26 10:52:15;;;;;;;11.18;7.90;;;;;;;33.10;71.89;100318.75;5071822;28;66260;-39
2022/05/26 10:54:56;;;;;;;9.00;7.72;;;;;;;33.12;71.83;100332.88;5053115;28;69440;-39
2022/05/26 10:57:48;;;;;;;8.52;7.70;;;;;;;32.98;72.47;100336.97;5071027;28;64901;-39
2022/05/26 11:00:24;;;;;;;14.73;9.48;;;;;;;32.65;71.51;100276.16;5068089;28;69966;-45
2022/05/26 11:03:19;;;;;;;14.63;9.68;;;;;;;33.01;70.76;100326.47;5071489;28;65655;-38
2022/05/26 11:06:16;;;;;;;15.45;9.68;;;;;;;32.91;70.41;100331.72;5055317;28;70773;-37
2022/05/26 11:08:57;;;;;;;17.80;11.40;;;;;;;32.94;70.40;100323.91;5052064;28;65674;-38
2022/05/26 11:11:39;;;;;;;16.10;11.05;;;;;;;32.85;70.93;100319.97;5072764;28;70214;-37
2022/05/26 11:17:54;;;;;;;17.03;11.37;;;;;;;32.94;71.25;100331.22;4997108;28;69814;-38
2022/05/26 11:20:42;;;;;;;23.08;11.85;;;;;;;32.94;71.40;100337.47;5061773;27;66191;-38
2022/05/26 11:23:17;;;;;;;20.15;12.68;;;;;;;32.65;70.87;100284.28;5071480;28;69871;-37
2022/05/26 11:25:51;;;;;;;21.75;12.80;;;;;;;33.04;70.91;100336.00;5067472;28;65388;-39
2022/05/26 11:28:47;;;;;;;27.52;13.23;;;;;;;32.74;70.54;100288.28;5070665;28;70023;-40
2022/05/26 11:37:35;;;;;;;15.68;12.45;;;;;;;32.61;72.11;100289.41;5067979;28;66183;-43
2022/05/26 11:40:07;;;;;;;;;;;;;;;32.81;73.20;100354.09;5066612;28;69751;-39
2022/05/26 11:42:54;;;;;;;19.55;12.13;;;;;;;32.70;72.86;100303.41;5073275;28;66443;-40
2022/05/26 11:45:32;;;;;;;20.55;11.40;;;;;;;32.86;72.82;100321.59;5065441;27;70013;-39
2022/05/26 11:48:06;;;;;;;12.63;10.98;;;;;;;33.15;72.98;100375.84;5070367;28;66545;-40
2022/05/26 11:51:01;;;;;;;13.63;10.15;;;;;;;33.15;72.81;100373.16;5055570;28;69551;-39
2022/05/26 11:53:32;;;;;;;12.05;10.13;;;;;;;33.17;72.74;100367.47;5027519;28;64973;-39
2022/05/26 11:56:04;;;;;;;13.68;9.70;;;;;;;33.15;72.29;100354.13;5065354;27;70138;-38
2022/05/26 11:58:44;;;;;;;12.82;9.40;;;;;;;32.99;72.60;100314.16;5074732;27;67057;-39
2022/05/26 12:01:33;;;;;;;9.95;8.85;;;;;;;33.09;72.31;100322.50;5072028;28;69947;-40
2022/05/26 12:04:25;;;;;;;11.63;9.05;;;;;;;33.08;72.87;100326.31;5069440;28;66590;-40
2022/05/26 12:07:00;;;;;;;;;;;;;;;32.81;73.41;100337.81;5068975;28;70122;-40
2022/05/26 12:09:48;;;;;;;14.10;7.43;;;;;;;33.00;72.17;100340.31;5068404;28;65567;-40
2022/05/26 12:12:21;;;;;;;7.53;6.93;;;;;;;33.07;71.33;100362.69;5072290;28;70674;-40
2022/05/26 12:14:58;;;;;;;8.48;7.60;;;;;;;33.07;71.32;100370.84;5068567;28;67138;-41
2022/05/26 12:17:34;;;;;;;7.22;6.60;;;;;;;33.07;70.65;100377.13;5057160;28;69084;-40
2022/05/26 12:20:10;;;;;;;6.63;5.97;;;;;;;33.04;70.26;100379.50;5071927;27;66065;-40
2022/05/26 12:23:03;;;;;;;6.60;6.15;;;;;;;32.91;69.90;100384.16;5067223;27;70275;-40
2022/05/26 12:25:37;;;;;;;6.72;6.22;;;;;;;33.00;69.51;100389.22;5067694;28;66719;-40
2022/05/26 12:28:28;;;;;;;6.88;6.20;;;;;;;32.26;69.48;100289.56;5062863;28;70104;-43
2022/05/26 12:31:00;;;;;;;5.95;5.47;;;;;;;32.96;69.38;100396.16;5045233;28;66128;-41
2022/05/26 12:33:55;;;;;;;6.30;5.60;;;;;;;32.98;68.95;100403.00;5040837;28;68844;-41
2022/05/26 12:36:56;;;;;;;6.47;5.95;;;;;;;32.98;69.37;100403.00;5058556;28;66412;-39
2022/05/26 12:39:43;;;;;;;6.60;6.00;;;;;;;32.89;69.78;100396.34;5032991;28;70148;-40
2022/05/26 12:42:55;;;;;;;6.85;6.07;;;;;;;32.85;70.46;100408.78;5030169;28;65045;-39
2022/05/26 12:45:45;;;;;;;8.00;5.78;;;;;;;32.84;70.41;100397.06;5020176;28;70328;-41
2022/05/26 12:48:37;;;;;;;8.18;5.72;;;;;;;32.90;70.72;100411.56;5049723;28;65126;-37
2022/05/26 12:51:13;;;;;;;9.23;5.65;;;;;;;32.96;70.98;100418.75;5070861;28;70259;-40
2022/05/26 12:53:54;;;;;;;6.78;6.07;;;;;;;32.80;70.44;100406.78;5026087;28;66388;-43